createdAt,value
2022-09-12T00:00:04.851Z,101569.72
2022-09-12T00:02:33.135Z,101568.88
2022-09-12T00:05:06.287Z,101572.63
2022-09-12T00:07:35.275Z,101579.94
2022-09-12T00:10:03.510Z,101574.03
2022-09-12T00:12:32.053Z,101569.78
2022-09-12T00:15:03.214Z,101574.34
2022-09-12T00:17:31.895Z,101571.78
2022-09-12T00:20:05.827Z,101569.94
2022-09-12T00:22:34.587Z,101575.88
2022-09-12T00:25:03.592Z,101571.31
2022-09-12T00:27:31.911Z,101578.81
2022-09-12T00:30:02.759Z,101572.84
2022-09-12T00:32:33.890Z,101573.53
2022-09-12T00:35:03.723Z,101575.41
2022-09-12T00:37:32.133Z,101571.50
2022-09-12T00:40:03.429Z,101571.69
2022-09-12T00:42:31.658Z,101573.91
2022-09-12T00:45:03.261Z,101571.69
2022-09-12T00:47:33.068Z,101566.94
2022-09-12T00:50:12.496Z,101570.34
2022-09-12T00:52:46.416Z,101561.19
2022-09-12T00:55:47.508Z,101560.69
2022-09-12T00:58:45.732Z,101563.88
2022-09-12T01:01:18.104Z,101566.94
2022-09-12T01:04:04.206Z,101566.44
2022-09-12T01:06:41.721Z,101558.47
2022-09-12T01:09:31.481Z,101566.63
2022-09-12T01:12:03.769Z,101580.53
2022-09-12T01:17:42.076Z,101574.22
2022-09-12T01:20:35.119Z,101572.69
2022-09-12T01:23:13.680Z,101571.16
2022-09-12T01:26:34.159Z,101571.31
2022-09-12T01:29:32.645Z,101572.84
2022-09-12T01:32:40.672Z,101581.31
2022-09-12T01:35:38.108Z,101585.22
2022-09-12T01:38:41.148Z,101588.09
2022-09-12T01:42:03.318Z,101588.59
2022-09-12T01:44:43.504Z,101591.59
2022-09-12T01:47:54.656Z,101588.91
2022-09-12T01:50:35.135Z,101581.09
2022-09-12T01:53:39.066Z,101591.44
2022-09-12T01:56:27.829Z,101590.06
2022-09-12T01:59:49.790Z,101587.69
2022-09-12T02:02:38.855Z,101591.75
2022-09-12T02:05:35.653Z,101593.94
2022-09-12T02:08:46.252Z,101590.69
2022-09-12T02:11:40.844Z,101591.19
2022-09-12T02:14:35.198Z,101591.38
2022-09-12T02:17:30.936Z,101598.13
2022-09-12T02:20:47.494Z,101594.75
2022-09-12T02:23:33.983Z,101591.50
2022-09-12T02:26:31.224Z,101611.78
2022-09-12T02:28:59.632Z,101606.53
2022-09-12T02:45:01.044Z,101609.97
2022-09-12T02:47:35.576Z,101609.25
2022-09-12T02:50:06.230Z,101610.59
2022-09-12T02:52:56.945Z,101616.00
2022-09-12T02:55:34.429Z,101624.09
2022-09-12T02:58:11.298Z,101628.59
2022-09-12T03:01:58.572Z,101622.97
2022-09-12T03:05:06.740Z,101623.28
2022-09-12T03:08:11.353Z,101622.47
2022-09-12T03:10:58.729Z,101617.44
2022-09-12T03:20:38.940Z,101632.47
2022-09-12T03:23:36.542Z,101640.16
2022-09-12T03:26:24.322Z,101637.53
2022-09-12T03:29:00.142Z,101642.97
2022-09-12T03:31:28.625Z,101641.81
2022-09-12T03:33:58.611Z,101652.63
2022-09-12T03:36:59.045Z,101661.44
2022-09-12T03:39:28.868Z,101659.47
2022-09-12T03:41:58.407Z,101654.84
2022-09-12T03:44:27.305Z,101663.88
2022-09-12T03:46:58.252Z,101665.13
2022-09-12T03:49:29.422Z,101659.41
2022-09-12T03:51:57.628Z,101661.19
2022-09-12T03:54:26.443Z,101653.34
2022-09-12T03:56:56.952Z,101663.09
2022-09-12T03:59:27.523Z,101666.38
2022-09-12T04:01:58.816Z,101667.97
2022-09-12T04:04:27.103Z,101670.44
2022-09-12T04:06:56.165Z,101673.88
2022-09-12T04:09:27.386Z,101668.38
2022-09-12T04:11:59.382Z,101672.38
2022-09-12T04:14:27.560Z,101675.81
2022-09-12T04:17:02.343Z,101669.84
2022-09-12T04:19:31.049Z,101671.88
2022-09-12T04:21:59.286Z,101666.75
2022-09-12T04:24:27.467Z,101675.00
2022-09-12T04:26:55.857Z,101666.91
2022-09-12T04:29:26.882Z,101670.75
2022-09-12T04:31:58.391Z,101669.34
2022-09-12T04:34:26.916Z,101667.09
2022-09-12T04:36:55.448Z,101664.84
2022-09-12T04:39:26.443Z,101674.22
2022-09-12T04:41:57.367Z,101672.22
2022-09-12T04:44:25.513Z,101679.63
2022-09-12T04:46:56.601Z,101679.75
2022-09-12T04:49:27.445Z,101674.50
2022-09-12T04:51:58.400Z,101666.84
2022-09-12T04:54:26.234Z,101666.56
2022-09-12T04:56:57.299Z,101667.69
2022-09-12T04:59:26.199Z,101667.00
2022-09-12T05:01:55.095Z,101664.28
2022-09-12T05:04:26.032Z,101669.69
2022-09-12T05:06:53.976Z,101659.47
2022-09-12T05:09:22.562Z,101656.19
2022-09-12T05:12:05.071Z,101655.78
2022-09-12T05:14:39.952Z,101651.09
2022-09-12T05:17:08.268Z,101653.25
2022-09-12T05:19:39.439Z,101644.56
2022-09-12T05:22:07.772Z,101640.31
2022-09-12T05:24:36.817Z,101643.16
2022-09-12T05:27:05.649Z,101640.75
2022-09-12T05:29:37.837Z,101637.19
2022-09-12T05:32:06.484Z,101644.44
2022-09-12T05:34:56.085Z,101638.31
2022-09-12T05:37:24.801Z,101637.63
2022-09-12T05:39:53.779Z,101636.94
2022-09-12T05:42:24.872Z,101636.94
2022-09-12T05:45:20.802Z,101636.94
2022-09-12T05:47:55.676Z,101632.53
2022-09-12T05:50:24.210Z,101634.38
2022-09-12T05:53:22.481Z,101634.38
2022-09-12T05:56:24.613Z,101631.78
2022-09-12T05:59:22.879Z,101627.28
2022-09-12T06:01:53.772Z,101621.88
2022-09-12T06:04:22.141Z,101612.78
2022-09-12T06:06:53.473Z,101616.34
2022-09-12T06:09:26.547Z,101613.78
2022-09-12T06:12:03.559Z,101620.59
2022-09-12T06:14:31.834Z,101618.59
2022-09-12T06:17:06.811Z,101619.19
2022-09-12T06:19:36.311Z,101620.03
2022-09-12T06:22:14.471Z,101621.28
2022-09-12T06:24:49.828Z,101613.50
2022-09-12T06:27:21.028Z,101616.03
2022-09-12T06:29:49.664Z,101614.03
2022-09-12T06:32:18.440Z,101616.88
2022-09-12T06:34:52.948Z,101618.88
2022-09-12T06:37:21.102Z,101625.56
2022-09-12T06:39:51.986Z,101621.28
2022-09-12T06:42:23.272Z,101620.00
2022-09-12T06:44:51.435Z,101622.84
2022-09-12T06:47:22.658Z,101625.53
2022-09-12T06:49:51.833Z,101627.41
2022-09-12T06:52:20.073Z,101623.13
2022-09-12T06:54:49.983Z,101630.53
2022-09-12T06:57:20.830Z,101631.63
2022-09-12T06:59:49.428Z,101625.69
2022-09-12T07:02:20.608Z,101620.53
2022-09-12T07:04:50.807Z,101619.13
2022-09-12T07:07:22.253Z,101626.34
2022-09-12T07:09:50.899Z,101618.56
2022-09-12T07:12:22.056Z,101622.13
2022-09-12T07:14:50.308Z,101616.00
2022-09-12T07:17:19.251Z,101618.97
2022-09-12T07:19:50.131Z,101608.47
2022-09-12T07:22:44.933Z,101604.94
2022-09-12T07:25:18.679Z,101607.75
2022-09-12T07:27:51.136Z,101610.59
2022-09-12T07:30:19.839Z,101612.44
2022-09-12T07:32:57.535Z,101607.34
2022-09-12T07:35:48.810Z,101608.88
2022-09-12T07:38:17.795Z,101607.03
2022-09-12T07:40:49.212Z,101613.69
2022-09-12T07:43:20.229Z,101606.84
2022-09-12T07:45:48.512Z,101604.13
2022-09-12T07:48:18.249Z,101613.22
2022-09-12T07:50:46.826Z,101607.84
2022-09-12T07:53:18.594Z,101611.38
2022-09-12T07:55:57.253Z,101609.66
2022-09-12T07:58:30.717Z,101609.94
2022-09-12T08:01:32.558Z,101607.09
2022-09-12T08:04:02.893Z,101606.41
2022-09-12T08:06:34.941Z,101612.19
2022-09-12T08:09:03.938Z,101615.13
2022-09-12T08:11:35.785Z,101605.78
2022-09-12T08:14:06.414Z,101600.88
2022-09-12T08:16:38.478Z,101604.28
2022-09-12T08:19:13.201Z,101607.50
2022-09-12T08:21:41.512Z,101604.06
2022-09-12T08:24:38.033Z,101608.03
2022-09-12T08:27:40.197Z,101601.78
2022-09-12T08:30:09.667Z,101603.19
2022-09-12T08:32:37.998Z,101606.16
2022-09-12T08:35:15.869Z,101601.88
2022-09-12T08:37:44.653Z,101600.06
2022-09-12T08:40:19.667Z,101595.66
2022-09-12T08:43:02.923Z,101598.63
2022-09-12T08:46:03.532Z,101592.38
2022-09-12T08:48:59.709Z,101587.50
2022-09-12T08:51:32.129Z,101580.59
2022-09-12T08:54:21.653Z,101578.88
2022-09-12T08:57:00.576Z,101568.81
2022-09-12T08:59:49.520Z,101564.03
2022-09-12T09:02:59.106Z,101569.56
2022-09-12T09:05:42.395Z,101564.31
2022-09-12T09:08:31.457Z,101561.84
2022-09-12T09:11:11.991Z,101567.63
2022-09-12T09:14:07.903Z,101562.78
2022-09-12T09:16:48.245Z,101555.84
2022-09-12T09:19:47.679Z,101548.03
2022-09-12T09:23:12.773Z,101544.50
2022-09-12T09:26:15.524Z,101551.13
2022-09-12T09:28:52.970Z,101549.69
2022-09-12T09:31:24.285Z,101546.16
2022-09-12T09:33:59.858Z,101548.84
2022-09-12T09:36:55.853Z,101543.47
2022-09-12T09:39:43.300Z,101549.94
2022-09-12T09:42:50.710Z,101541.19
2022-09-12T09:45:25.006Z,101538.97
2022-09-12T09:48:16.001Z,101534.59
2022-09-12T09:50:45.094Z,101530.31
2022-09-12T09:53:41.602Z,101540.22
2022-09-12T09:56:36.854Z,101541.34
2022-09-12T09:59:18.385Z,101532.53
2022-09-12T10:02:11.216Z,101537.34
2022-09-12T10:05:04.242Z,101539.28
2022-09-12T10:07:36.473Z,101537.59
2022-09-12T10:10:24.829Z,101545.41
2022-09-12T10:13:25.222Z,101553.47
2022-09-12T10:16:22.825Z,101548.09
2022-09-12T10:18:53.396Z,101550.16
2022-09-12T10:21:29.190Z,101543.50
2022-09-12T10:24:20.027Z,101536.41
2022-09-12T10:27:13.941Z,101541.19
2022-09-12T10:30:13.967Z,101539.63
2022-09-12T10:32:46.375Z,101543.56
2022-09-12T10:35:29.883Z,101541.00
2022-09-12T10:38:07.965Z,101535.97
2022-09-12T10:40:42.118Z,101535.16
2022-09-12T10:43:39.270Z,101535.97
2022-09-12T10:46:19.093Z,101533.56
2022-09-12T10:48:52.538Z,101534.69
2022-09-12T10:51:26.580Z,101536.50
2022-09-12T10:54:02.214Z,101536.63
2022-09-12T10:56:42.921Z,101536.78
2022-09-12T10:59:23.765Z,101546.06
2022-09-12T11:02:33.656Z,101539.13
2022-09-12T11:05:07.474Z,101530.47
2022-09-12T11:07:49.358Z,101534.13
2022-09-12T11:10:22.092Z,101524.50
2022-09-12T11:13:08.586Z,101530.84
2022-09-12T11:15:55.680Z,101532.56
2022-09-12T11:18:51.733Z,101530.84
2022-09-12T11:21:36.061Z,101531.81
2022-09-12T11:24:44.132Z,101533.78
2022-09-12T11:27:34.187Z,101528.94
2022-09-12T11:30:36.133Z,101536.00
2022-09-12T11:33:36.866Z,101528.19
2022-09-12T11:36:32.165Z,101522.38
2022-09-12T11:39:18.765Z,101519.56
2022-09-12T11:42:10.880Z,101524.31
2022-09-12T11:44:51.261Z,101526.28
2022-09-12T11:47:42.699Z,101527.25
2022-09-12T11:50:30.093Z,101522.72
2022-09-12T11:53:12.384Z,101521.03
2022-09-12T11:56:04.902Z,101513.56
2022-09-12T11:58:34.320Z,101520.03
2022-09-12T12:01:48.561Z,101518.94
2022-09-12T12:04:33.056Z,101516.38
2022-09-12T12:07:12.755Z,101519.78
2022-09-12T12:10:14.492Z,101519.69
2022-09-12T12:12:43.817Z,101515.16
2022-09-12T12:15:23.182Z,101519.56
2022-09-12T12:18:20.384Z,101520.41
2022-09-12T12:20:48.941Z,101517.84
2022-09-12T12:23:40.584Z,101523.78
2022-09-12T12:26:43.538Z,101514.75
2022-09-12T12:29:15.131Z,101505.00
2022-09-12T12:32:04.936Z,101509.88
2022-09-12T12:34:44.584Z,101506.31
2022-09-12T12:37:26.897Z,101506.94
2022-09-12T12:40:11.730Z,101507.50
2022-09-12T14:47:29.591Z,101546.84
2022-09-12T16:16:59.996Z,101557.34
2022-09-12T16:22:51.446Z,101551.19
2022-09-12T16:25:23.663Z,101546.41
2022-09-12T16:27:54.004Z,101550.44
2022-09-12T16:30:25.406Z,101543.44
2022-09-12T16:33:21.131Z,101547.16
2022-09-12T16:36:50.737Z,101549.31
2022-09-12T16:39:22.692Z,101546.09
2022-09-12T16:42:21.976Z,101557.22
2022-09-12T16:45:20.492Z,101550.34
2022-09-12T16:47:52.064Z,101546.56
2022-09-12T16:50:20.518Z,101549.94
2022-09-12T16:53:25.423Z,101547.97
2022-09-12T16:56:25.618Z,101556.50
2022-09-12T16:58:54.887Z,101563.00
2022-09-12T17:08:19.328Z,101569.44
2022-09-12T17:10:50.067Z,101563.91
2022-09-12T17:13:20.965Z,101563.41
2022-09-12T17:15:49.198Z,101562.72
2022-09-12T17:18:20.836Z,101569.16
2022-09-12T17:20:51.720Z,101569.31
2022-09-12T17:23:25.878Z,101570.88
2022-09-12T17:25:59.424Z,101571.88
2022-09-12T17:29:26.435Z,101575.41
2022-09-12T17:31:55.950Z,101572.88
2022-09-12T17:34:24.341Z,101585.34
2022-09-12T17:37:17.125Z,101588.19
2022-09-12T17:39:48.514Z,101587.44
2022-09-12T17:42:20.984Z,101582.38
2022-09-12T17:44:49.259Z,101578.44
2022-09-12T17:47:17.444Z,101582.28
2022-09-12T17:49:48.792Z,101580.75
2022-09-12T17:52:17.043Z,101586.13
2022-09-12T17:54:48.414Z,101584.16
2022-09-12T17:57:19.707Z,101579.09
2022-09-12T17:59:47.944Z,101575.13
2022-09-12T18:02:19.583Z,101577.53
2022-09-12T18:04:49.145Z,101577.28
2022-09-12T18:07:19.833Z,101576.25
2022-09-12T18:09:48.692Z,101578.19
2022-09-12T18:12:20.806Z,101565.06
2022-09-12T18:14:49.005Z,101561.63
2022-09-12T18:17:18.102Z,101561.31
2022-09-12T18:19:50.335Z,101561.31
2022-09-12T18:23:20.440Z,101552.91
2022-09-12T18:26:46.574Z,101561.25
2022-09-12T18:29:58.916Z,101540.75
2022-09-12T18:32:49.643Z,101552.19
2022-09-12T18:35:47.675Z,101548.16
2022-09-12T18:38:48.732Z,101554.13
2022-09-12T18:41:46.763Z,101540.75
2022-09-12T18:44:45.990Z,101539.38
2022-09-12T18:50:50.120Z,101531.22
2022-09-12T19:00:00.852Z,101514.03
2022-09-12T19:02:51.939Z,101512.75
2022-09-12T19:05:44.391Z,101508.84
2022-09-12T19:08:46.786Z,101497.81
2022-09-12T19:14:48.598Z,101498.28
2022-09-12T19:20:45.538Z,101485.16
2022-09-12T19:23:44.289Z,101481.13
2022-09-12T19:26:49.363Z,101483.19
2022-09-12T19:29:20.624Z,101469.56
2022-09-12T19:31:52.118Z,101471.28
2022-09-12T19:35:14.076Z,101459.53
2022-09-12T19:37:49.634Z,101458.53
2022-09-12T19:40:20.607Z,101452.09
2022-09-12T19:42:48.921Z,101455.16
2022-09-12T19:45:17.517Z,101461.47
2022-09-12T19:47:47.926Z,101455.69
2022-09-12T19:50:17.165Z,101450.09
2022-09-12T19:52:45.512Z,101441.94
2022-09-12T19:55:16.843Z,101446.88
2022-09-12T19:57:45.133Z,101453.50
2022-09-12T20:00:14.005Z,101441.78
2022-09-12T20:02:42.250Z,101443.47
2022-09-12T20:05:13.567Z,101433.81
2022-09-12T20:07:41.726Z,101433.13
2022-09-12T20:14:16.583Z,101430.94
2022-09-12T20:17:11.091Z,101426.22
2022-09-12T20:19:42.061Z,101424.00
2022-09-12T20:22:40.816Z,101418.41
2022-09-12T20:25:12.417Z,101417.88
2022-09-12T20:35:10.677Z,101405.19
2022-09-12T20:43:13.987Z,101398.72
2022-09-12T20:51:12.127Z,101399.59
2022-09-12T20:53:42.696Z,101388.41
2022-09-12T20:56:11.084Z,101380.25
2022-09-12T20:58:44.399Z,101388.25
2022-09-12T21:01:16.579Z,101384.16
2022-09-12T21:04:14.893Z,101383.00
2022-09-12T21:07:13.700Z,101373.16
2022-09-12T21:09:41.326Z,101373.31
2022-09-12T21:12:10.017Z,101377.22
2022-09-12T21:14:41.649Z,101362.97
2022-09-12T21:17:09.843Z,101361.31
2022-09-12T21:19:38.115Z,101367.56
2022-09-12T21:22:12.319Z,101361.13
2022-09-12T21:24:40.808Z,101361.63
2022-09-12T21:27:12.782Z,101361.97
2022-09-12T21:29:41.031Z,101356.53
2022-09-12T21:32:13.455Z,101348.53
2022-09-12T21:34:42.739Z,101348.88
2022-09-12T21:37:10.927Z,101349.19
2022-09-12T21:39:39.174Z,101336.34
2022-09-12T21:42:07.601Z,101334.28
2022-09-12T21:44:38.458Z,101327.97
2022-09-12T21:47:06.892Z,101317.91
2022-09-12T21:49:35.162Z,101313.59
2022-09-12T21:52:05.883Z,101317.72
2022-09-12T21:54:36.133Z,101314.13
2022-09-12T21:57:07.061Z,101318.69
2022-09-12T21:59:35.392Z,101313.38
2022-09-12T22:02:11.684Z,101308.09
2022-09-12T22:04:41.016Z,101306.91
2022-09-12T22:07:10.278Z,101297.53
2022-09-12T22:09:38.511Z,101303.50
2022-09-12T22:12:09.770Z,101300.72
2022-09-12T22:14:38.075Z,101298.69
2022-09-12T22:17:11.039Z,101298.00
2022-09-12T22:19:39.686Z,101295.97
2022-09-12T22:22:38.399Z,101293.72
2022-09-12T22:25:37.324Z,101294.94
2022-09-12T22:28:40.428Z,101285.94
2022-09-12T22:31:37.761Z,101278.47
2022-09-12T22:34:36.837Z,101274.47
2022-09-12T22:40:24.868Z,101281.38
2022-09-12T22:47:42.036Z,101269.16
2022-09-12T22:50:42.310Z,101261.00
2022-09-12T23:06:37.882Z,101258.66
2022-09-12T23:16:05.990Z,101256.16
2022-09-12T23:19:46.268Z,101253.28
